createdAt,value
2022-10-24T00:00:32.261Z,79.82
2022-10-24T00:03:00.248Z,80.24
2022-10-24T00:05:27.660Z,81.60
2022-10-24T00:07:55.160Z,80.79
2022-10-24T00:10:22.839Z,81.82
2022-10-24T00:12:50.217Z,83.12
2022-10-24T00:15:17.574Z,82.91
2022-10-24T00:17:45.188Z,81.39
2022-10-24T00:20:12.901Z,80.93
2022-10-24T00:22:40.255Z,81.07
2022-10-24T00:25:08.149Z,80.17
2022-10-24T00:27:36.308Z,79.76
2022-10-24T00:30:05.484Z,80.12
2022-10-24T00:32:33.189Z,80.78
2022-10-24T00:35:00.540Z,82.66
2022-10-24T00:37:27.878Z,82.85
2022-10-24T00:39:55.491Z,80.82
2022-10-24T00:42:23.093Z,82.36
2022-10-24T00:44:53.093Z,81.55
2022-10-24T00:47:24.786Z,80.72
2022-10-24T00:50:12.358Z,80.61
2022-10-24T00:52:45.391Z,78.92
2022-10-24T00:55:13.828Z,80.25
2022-10-24T00:57:51.664Z,80.95
2022-10-24T01:00:22.225Z,82.20
2022-10-24T01:02:49.929Z,82.38
2022-10-24T01:05:19.277Z,83.05
2022-10-24T01:07:52.525Z,84.81
2022-10-24T01:10:40.784Z,83.88
2022-10-24T01:13:26.708Z,83.48
2022-10-24T01:16:02.176Z,82.83
2022-10-24T01:18:34.622Z,83.78
2022-10-24T01:21:25.097Z,83.50
2022-10-24T01:24:32.583Z,84.29
2022-10-24T01:27:30.358Z,84.72
2022-10-24T01:30:10.568Z,83.62
2022-10-24T01:32:46.003Z,84.63
2022-10-24T01:35:37.064Z,84.48
2022-10-24T01:38:19.659Z,82.28
2022-10-24T01:40:52.538Z,82.84
2022-10-24T01:43:27.744Z,82.93
2022-10-24T01:46:08.541Z,83.19
2022-10-24T01:48:40.525Z,82.23
2022-10-24T01:51:08.300Z,83.59
2022-10-24T01:53:36.304Z,82.93
2022-10-24T01:56:03.868Z,82.27
2022-10-24T01:58:31.220Z,83.25
2022-10-24T02:01:00.612Z,82.34
2022-10-24T02:03:39.534Z,81.41
2022-10-24T02:06:14.023Z,83.47
2022-10-24T02:08:44.413Z,83.46
2022-10-24T02:11:12.590Z,82.79
2022-10-24T02:13:45.667Z,83.29
2022-10-24T02:16:17.002Z,84.00
2022-10-24T02:18:44.570Z,82.80
2022-10-24T02:21:28.205Z,82.42
2022-10-24T02:23:58.775Z,84.94
2022-10-24T02:26:32.489Z,84.42
2022-10-24T02:29:03.434Z,84.52
2022-10-24T02:31:40.588Z,84.42
2022-10-24T02:34:09.802Z,84.19
2022-10-24T02:36:37.902Z,84.69
2022-10-24T02:39:07.035Z,84.32
2022-10-24T02:41:36.845Z,84.61
2022-10-24T02:44:04.690Z,85.05
2022-10-24T02:46:32.465Z,84.48
2022-10-24T02:49:01.563Z,84.82
2022-10-24T02:51:32.188Z,84.82
2022-10-24T02:54:00.852Z,84.11
2022-10-24T02:56:28.655Z,82.44
2022-10-24T02:58:56.079Z,82.75
2022-10-24T03:01:23.836Z,82.39
2022-10-24T03:03:51.280Z,82.48
2022-10-24T03:06:18.659Z,83.17
2022-10-24T03:08:46.281Z,82.92
2022-10-24T03:11:13.627Z,84.12
2022-10-24T03:13:40.962Z,86.44
2022-10-24T03:16:11.608Z,84.51
2022-10-24T03:18:41.418Z,85.31
2022-10-24T03:21:09.011Z,85.01
2022-10-24T03:23:36.309Z,84.51
2022-10-24T03:26:03.635Z,85.49
2022-10-24T03:28:31.248Z,85.17
2022-10-24T03:30:58.576Z,86.02
2022-10-24T03:33:25.924Z,85.83
2022-10-24T03:35:54.233Z,85.69
2022-10-24T03:38:23.134Z,84.67
2022-10-24T03:40:51.053Z,83.76
2022-10-24T03:43:18.904Z,85.04
2022-10-24T03:45:46.653Z,85.66
2022-10-24T03:48:14.179Z,83.62
2022-10-24T03:50:41.876Z,85.24
2022-10-24T03:53:09.213Z,84.55
2022-10-24T03:55:36.619Z,82.46
2022-10-24T03:58:04.368Z,81.89
2022-10-24T04:00:34.668Z,82.54
2022-10-24T04:03:02.340Z,83.81
2022-10-24T04:05:29.737Z,84.01
2022-10-24T04:07:57.125Z,81.86
2022-10-24T04:10:24.690Z,82.69
2022-10-24T04:12:52.036Z,82.78
2022-10-24T04:15:19.436Z,81.39
2022-10-24T04:17:47.341Z,82.00
2022-10-24T04:20:19.445Z,82.71
2022-10-24T04:22:47.679Z,83.52
2022-10-24T04:25:16.324Z,82.97
2022-10-24T04:27:43.973Z,83.82
2022-10-24T04:30:16.558Z,83.08
2022-10-24T04:32:44.902Z,81.61
2022-10-24T04:35:13.905Z,83.74
2022-10-24T04:37:41.314Z,83.37
2022-10-24T04:40:09.517Z,82.53
2022-10-24T04:42:37.263Z,82.78
2022-10-24T04:45:05.129Z,81.27
2022-10-24T04:47:32.702Z,82.20
2022-10-24T04:50:00.293Z,80.51
2022-10-24T04:52:27.626Z,81.85
2022-10-24T04:54:55.024Z,82.08
2022-10-24T04:57:22.631Z,83.73
2022-10-24T04:59:50.103Z,84.59
2022-10-24T05:02:17.549Z,84.00
2022-10-24T05:04:45.195Z,85.35
2022-10-24T05:07:12.518Z,83.11
2022-10-24T05:09:39.856Z,82.33
2022-10-24T05:12:07.568Z,81.77
2022-10-24T05:14:35.003Z,81.61
2022-10-24T05:17:02.440Z,82.32
2022-10-24T05:19:30.222Z,83.21
2022-10-24T05:21:57.561Z,82.89
2022-10-24T05:24:25.047Z,81.09
2022-10-24T05:26:52.654Z,81.57
2022-10-24T05:29:20.002Z,81.11
2022-10-24T05:31:47.461Z,80.50
2022-10-24T05:34:15.117Z,80.29
2022-10-24T05:36:42.497Z,80.57
2022-10-24T05:39:09.892Z,79.32
2022-10-24T05:41:37.548Z,78.43
2022-10-24T05:44:04.990Z,78.74
2022-10-24T05:46:32.602Z,80.37
2022-10-24T05:49:00.375Z,80.82
2022-10-24T05:51:27.733Z,79.55
2022-10-24T05:53:57.454Z,80.49
2022-10-24T05:56:25.766Z,80.18
2022-10-24T05:58:53.172Z,80.50
2022-10-24T06:01:20.774Z,80.09
2022-10-24T06:03:48.449Z,80.47
2022-10-24T06:06:15.897Z,80.46
2022-10-24T06:08:43.237Z,79.68
2022-10-24T06:11:11.677Z,78.31
2022-10-24T06:13:39.538Z,79.72
2022-10-24T06:16:07.360Z,80.85
2022-10-24T06:18:36.164Z,78.64
2022-10-24T06:21:05.494Z,78.91
2022-10-24T06:23:33.231Z,79.87
2022-10-24T06:26:00.868Z,80.26
2022-10-24T06:28:28.295Z,82.26
2022-10-24T06:30:55.678Z,83.37
2022-10-24T06:33:23.323Z,84.61
2022-10-24T06:35:50.697Z,85.23
2022-10-24T06:38:18.044Z,85.47
2022-10-24T06:40:45.682Z,83.99
2022-10-24T06:43:13.043Z,83.93
2022-10-24T06:45:40.389Z,84.50
2022-10-24T06:48:08.024Z,84.63
2022-10-24T06:50:36.982Z,85.56
2022-10-24T06:53:04.332Z,85.96
2022-10-24T06:55:31.939Z,84.82
2022-10-24T06:57:59.629Z,87.91
2022-10-24T07:02:59.681Z,85.22
2022-10-24T07:05:27.166Z,86.20
2022-10-24T07:07:54.546Z,86.85
2022-10-24T07:10:22.251Z,84.73
2022-10-24T07:12:49.619Z,84.15
2022-10-24T07:15:17.050Z,84.39
2022-10-24T07:17:45.327Z,83.49
2022-10-24T07:20:13.300Z,83.04
2022-10-24T07:22:41.888Z,82.44
2022-10-24T07:25:09.752Z,81.76
2022-10-24T07:27:37.248Z,83.43
2022-10-24T07:30:06.125Z,82.42
2022-10-24T07:32:34.096Z,81.19
2022-10-24T07:35:01.484Z,79.75
2022-10-24T07:37:28.835Z,80.09
2022-10-24T07:39:56.481Z,78.76
2022-10-24T07:42:23.791Z,81.79
2022-10-24T07:44:51.263Z,81.22
2022-10-24T07:47:18.901Z,83.11
2022-10-24T07:49:46.244Z,82.95
2022-10-24T07:52:13.609Z,81.62
2022-10-24T07:54:41.252Z,82.05
2022-10-24T07:57:08.623Z,81.42
2022-10-24T07:59:43.193Z,79.58
2022-10-24T08:02:14.750Z,80.76
2022-10-24T08:04:42.464Z,79.78
2022-10-24T08:07:14.326Z,80.32
2022-10-24T08:09:45.019Z,79.35
2022-10-24T08:12:12.662Z,78.27
2022-10-24T08:14:41.167Z,77.93
2022-10-24T08:17:09.132Z,78.05
2022-10-24T08:19:43.787Z,80.29
2022-10-24T08:22:12.461Z,80.40
2022-10-24T08:24:39.829Z,80.00
2022-10-24T08:27:07.249Z,80.46
2022-10-24T08:29:35.556Z,79.96
2022-10-24T08:32:02.977Z,79.63
2022-10-24T08:34:30.419Z,79.43
2022-10-24T08:36:58.080Z,80.92
2022-10-24T08:39:27.027Z,80.12
2022-10-24T08:41:59.507Z,82.17
2022-10-24T08:44:40.418Z,83.05
2022-10-24T08:47:29.689Z,82.80
2022-10-24T08:50:09.384Z,82.49
2022-10-24T08:52:49.871Z,83.83
2022-10-24T08:55:48.094Z,82.57
2022-10-24T08:58:31.361Z,82.79
2022-10-24T09:01:01.140Z,80.91
2022-10-24T09:03:55.074Z,81.56
2022-10-24T09:06:29.482Z,81.09
2022-10-24T09:08:58.517Z,80.82
2022-10-24T09:11:41.698Z,79.95
2022-10-24T09:14:14.414Z,80.13
2022-10-24T09:16:44.441Z,79.48
2022-10-24T09:19:15.894Z,79.01
2022-10-24T09:21:43.913Z,79.57
2022-10-24T09:24:23.112Z,77.09
2022-10-24T09:26:50.776Z,77.68
2022-10-24T09:29:18.182Z,77.95
2022-10-24T09:31:49.382Z,77.76
2022-10-24T09:34:17.458Z,76.76
2022-10-24T09:36:44.821Z,77.93
2022-10-24T09:39:32.804Z,78.47
2022-10-24T09:42:01.759Z,78.79
2022-10-24T09:44:31.513Z,78.87
2022-10-24T09:46:59.088Z,77.45
2022-10-24T09:49:33.483Z,77.18
2022-10-24T09:52:16.105Z,79.59
2022-10-24T09:54:44.806Z,77.44
2022-10-24T09:57:12.083Z,77.72
2022-10-24T10:00:03.489Z,78.94
2022-10-24T10:02:37.614Z,78.49
2022-10-24T10:05:05.226Z,78.35
2022-10-24T10:07:38.776Z,79.48
2022-10-24T10:10:18.619Z,78.43
2022-10-24T10:12:55.280Z,77.49
2022-10-24T10:15:31.077Z,77.33
2022-10-24T10:18:03.934Z,76.35
2022-10-24T10:20:37.132Z,76.73
2022-10-24T10:23:17.489Z,76.46
2022-10-24T10:25:45.123Z,76.49
2022-10-24T10:28:21.181Z,76.31
2022-10-24T10:30:55.261Z,76.25
2022-10-24T10:33:53.904Z,76.26
2022-10-24T10:36:25.380Z,75.96
2022-10-24T10:39:30.381Z,75.87
2022-10-24T10:42:03.688Z,76.09
2022-10-24T10:44:40.096Z,75.01
2022-10-24T10:47:38.915Z,75.49
2022-10-24T10:50:39.744Z,75.69
2022-10-24T10:53:31.741Z,75.94
2022-10-24T10:56:21.182Z,75.65
2022-10-24T10:59:04.167Z,75.58
2022-10-24T11:01:53.320Z,76.46
2022-10-24T11:04:42.638Z,75.98
2022-10-24T11:07:23.344Z,74.60
2022-10-24T11:09:52.894Z,73.88
2022-10-24T11:12:26.636Z,74.89
2022-10-24T11:15:09.773Z,73.29
2022-10-24T11:17:59.335Z,73.22
2022-10-24T11:20:29.825Z,72.50
2022-10-24T11:23:02.300Z,72.15
2022-10-24T11:25:32.015Z,72.51
2022-10-24T11:28:07.723Z,72.97
2022-10-24T11:30:42.633Z,71.56
2022-10-24T11:33:12.084Z,72.27
2022-10-24T11:35:44.803Z,72.59
2022-10-24T11:38:24.304Z,73.08
2022-10-24T11:40:58.886Z,72.33
2022-10-24T11:43:37.901Z,71.90
2022-10-24T11:46:12.620Z,71.86
2022-10-24T11:48:53.322Z,71.30
2022-10-24T11:51:36.048Z,71.54
2022-10-24T11:54:05.599Z,71.52
2022-10-24T11:56:50.442Z,71.81
2022-10-24T11:59:24.470Z,71.22
2022-10-24T12:01:54.954Z,71.82
2022-10-24T12:04:37.471Z,73.93
2022-10-24T12:07:13.549Z,76.65
2022-10-24T12:10:02.118Z,77.63
2022-10-24T12:12:56.879Z,79.18
2022-10-24T12:15:35.479Z,80.00
2022-10-24T12:18:12.176Z,82.55
2022-10-24T12:20:40.466Z,79.87
2022-10-24T12:23:08.191Z,75.82
2022-10-24T12:25:37.239Z,74.55
2022-10-24T12:28:08.721Z,74.06
2022-10-24T12:30:36.782Z,72.41
2022-10-24T12:33:08.735Z,74.38
2022-10-24T12:35:44.522Z,74.15
2022-10-24T12:38:16.316Z,76.25
2022-10-24T12:41:05.855Z,77.51
2022-10-24T12:43:44.350Z,74.46
2022-10-24T12:46:18.811Z,74.83
2022-10-24T12:48:59.212Z,71.60
2022-10-24T12:51:28.889Z,71.34
2022-10-24T12:54:11.024Z,75.78
2022-10-24T12:56:50.540Z,73.37
2022-10-24T12:59:22.634Z,75.30
2022-10-24T13:02:11.716Z,76.26
2022-10-24T13:04:42.137Z,72.59
2022-10-24T13:07:18.083Z,74.23
2022-10-24T13:09:55.617Z,71.54
2022-10-24T13:12:56.902Z,70.37
2022-10-24T13:15:42.146Z,69.73
2022-10-24T13:18:21.830Z,70.33
2022-10-24T13:20:50.367Z,70.84
2022-10-24T13:23:24.969Z,70.58
2022-10-24T13:25:57.289Z,69.96
2022-10-24T13:28:24.865Z,69.99
2022-10-24T13:30:58.600Z,71.40
2022-10-24T13:33:29.003Z,76.17
2022-10-24T13:36:09.692Z,72.69
2022-10-24T13:38:41.940Z,71.41
2022-10-24T13:41:11.386Z,69.52
2022-10-24T13:43:43.414Z,68.19
2022-10-24T13:46:13.243Z,71.03
2022-10-24T13:48:46.668Z,71.32
2022-10-24T13:51:47.588Z,71.69
2022-10-24T13:54:21.299Z,74.28
2022-10-24T13:56:48.853Z,77.57
2022-10-24T13:59:31.783Z,78.02
2022-10-24T14:02:02.871Z,79.01
2022-10-24T14:04:30.893Z,79.27
2022-10-24T14:07:03.862Z,81.41
2022-10-24T14:09:39.363Z,81.45
2022-10-24T14:12:06.789Z,79.58
2022-10-24T14:14:40.044Z,78.55
2022-10-24T14:17:31.507Z,77.53
2022-10-24T14:20:13.382Z,77.12
2022-10-24T14:22:41.264Z,78.77
2022-10-24T14:25:30.087Z,78.33
2022-10-24T14:28:03.880Z,77.12
2022-10-24T14:30:35.029Z,76.01
2022-10-24T14:33:12.984Z,79.43
2022-10-24T14:35:41.145Z,78.28
2022-10-24T14:38:13.723Z,75.33
2022-10-24T14:40:43.242Z,77.88
2022-10-24T14:43:24.423Z,79.69
2022-10-24T14:46:13.037Z,79.94
2022-10-24T14:48:46.142Z,81.64
2022-10-24T14:51:16.683Z,82.49
2022-10-24T14:53:44.974Z,78.78
2022-10-24T14:56:25.084Z,79.66
2022-10-24T14:58:54.719Z,81.44
2022-10-24T15:01:23.628Z,83.76
2022-10-24T15:04:01.107Z,84.35
2022-10-24T15:06:37.557Z,83.62
2022-10-24T15:09:10.987Z,83.26
2022-10-24T15:11:41.221Z,81.35
2022-10-24T15:14:36.777Z,79.69
2022-10-24T15:17:31.647Z,79.34
2022-10-24T15:20:01.739Z,78.54
2022-10-24T15:22:32.327Z,74.93
2022-10-24T15:25:02.134Z,74.71
2022-10-24T15:27:37.338Z,75.91
2022-10-24T15:30:20.152Z,75.64
2022-10-24T15:32:49.229Z,75.70
2022-10-24T15:35:18.032Z,78.38
2022-10-24T15:37:56.706Z,77.49
2022-10-24T15:40:30.448Z,76.36
2022-10-24T15:42:57.823Z,79.88
2022-10-24T15:45:25.546Z,79.50
2022-10-24T15:47:53.144Z,78.15
2022-10-24T15:52:57.366Z,76.74
2022-10-24T15:55:27.066Z,76.85
2022-10-24T15:57:54.851Z,75.25
2022-10-24T16:00:22.991Z,74.73
2022-10-24T16:02:53.308Z,74.61
2022-10-24T16:05:24.153Z,75.34
2022-10-24T16:07:52.240Z,75.25
2022-10-24T16:10:21.313Z,74.37
2022-10-24T16:12:49.879Z,76.40
2022-10-24T16:15:21.500Z,78.56
2022-10-24T16:17:49.256Z,74.54
2022-10-24T16:20:17.145Z,77.93
2022-10-24T16:22:45.099Z,76.38
2022-10-24T16:25:24.172Z,75.85
2022-10-24T16:27:52.352Z,75.75
2022-10-24T16:30:23.306Z,76.14
2022-10-24T16:32:50.966Z,75.32
2022-10-24T16:35:24.853Z,73.51
2022-10-24T16:37:53.470Z,75.29
2022-10-24T16:40:22.130Z,75.26
2022-10-24T16:42:50.932Z,75.04
2022-10-24T16:45:19.203Z,74.42
2022-10-24T16:47:48.014Z,74.22
2022-10-24T16:50:17.563Z,74.96
2022-10-24T16:52:45.283Z,75.09
2022-10-24T16:55:13.666Z,74.71
2022-10-24T16:57:41.422Z,74.28
2022-10-24T17:00:14.575Z,75.08
2022-10-24T17:02:47.121Z,74.99
2022-10-24T17:05:15.365Z,75.01
2022-10-24T17:07:43.186Z,75.42
2022-10-24T17:10:12.687Z,74.73
2022-10-24T17:12:42.430Z,75.25
2022-10-24T17:15:10.561Z,75.73
2022-10-24T17:17:40.673Z,74.80
2022-10-24T17:20:09.928Z,75.17
2022-10-24T17:22:38.798Z,75.25
2022-10-24T17:25:07.685Z,74.61
2022-10-24T17:27:35.569Z,74.77
2022-10-24T17:30:04.002Z,75.25
2022-10-24T17:32:33.159Z,75.80
2022-10-24T17:35:01.087Z,75.43
2022-10-24T17:37:58.672Z,76.20
2022-10-24T17:40:28.977Z,75.36
2022-10-24T17:42:57.612Z,74.30
2022-10-24T17:45:26.335Z,75.06
2022-10-24T17:47:54.234Z,74.77
2022-10-24T17:50:22.292Z,74.82
2022-10-24T17:52:51.660Z,75.25
2022-10-24T17:55:44.972Z,74.96
2022-10-24T17:58:13.745Z,76.22
2022-10-24T18:00:41.726Z,79.48
2022-10-24T18:03:09.898Z,77.90
2022-10-24T18:05:38.772Z,76.63
2022-10-24T18:08:08.776Z,77.71
2022-10-24T18:10:39.154Z,76.88
2022-10-24T18:13:07.724Z,76.62
2022-10-24T18:15:36.744Z,76.28
2022-10-24T18:18:05.721Z,76.37
2022-10-24T18:20:33.257Z,76.73
2022-10-24T18:23:01.373Z,76.18
2022-10-24T18:25:29.583Z,75.80
2022-10-24T18:27:57.429Z,76.47
2022-10-24T18:30:25.387Z,76.43
2022-10-24T18:32:53.574Z,76.22
2022-10-24T18:35:22.449Z,77.07
2022-10-24T18:37:50.585Z,78.50
2022-10-24T18:40:18.522Z,83.49
2022-10-24T18:42:52.087Z,82.76
2022-10-24T18:45:23.543Z,84.56
2022-10-24T18:47:52.032Z,87.42
2022-10-24T18:50:22.883Z,86.96
2022-10-24T18:53:16.795Z,84.81
2022-10-24T18:55:47.286Z,82.61
2022-10-24T18:58:19.875Z,80.60
2022-10-24T19:00:48.291Z,80.94
2022-10-24T19:03:31.278Z,80.32
2022-10-24T19:06:04.317Z,79.85
2022-10-24T19:08:32.224Z,81.73
2022-10-24T19:11:00.555Z,80.09
2022-10-24T19:13:28.447Z,79.80
2022-10-24T19:16:04.424Z,80.16
2022-10-24T19:18:34.582Z,79.85
2022-10-24T19:21:04.799Z,77.37
2022-10-24T19:23:32.542Z,77.22
2022-10-24T19:26:00.301Z,77.12
2022-10-24T19:28:28.096Z,78.05
2022-10-24T19:30:55.793Z,77.66
2022-10-24T19:33:41.770Z,77.32
2022-10-24T19:36:11.537Z,78.83
2022-10-24T19:38:41.496Z,77.23
2022-10-24T19:41:11.752Z,75.61
2022-10-24T19:43:39.694Z,77.64
2022-10-24T19:46:19.407Z,77.27
2022-10-24T19:48:49.631Z,77.16
2022-10-24T19:51:18.657Z,76.99
2022-10-24T19:53:47.085Z,76.81
2022-10-24T19:56:23.887Z,76.12
2022-10-24T19:58:54.159Z,73.26
2022-10-24T20:01:36.391Z,73.30
2022-10-24T20:04:05.010Z,73.77
2022-10-24T20:06:33.104Z,75.84
2022-10-24T20:09:00.769Z,79.94
2022-10-24T20:11:28.768Z,79.85
2022-10-24T20:13:57.622Z,78.87
2022-10-24T20:16:25.480Z,78.48
2022-10-24T20:18:53.553Z,78.74
2022-10-24T20:21:21.178Z,78.67
2022-10-24T20:23:49.351Z,81.19
2022-10-24T20:26:21.684Z,84.05
2022-10-24T20:28:51.017Z,82.97
2022-10-24T20:31:25.011Z,82.10
2022-10-24T20:33:53.019Z,83.20
2022-10-24T20:36:23.624Z,79.05
2022-10-24T20:38:50.985Z,78.97
2022-10-24T20:41:18.783Z,79.46
2022-10-24T20:43:46.962Z,79.57
2022-10-24T20:46:14.747Z,82.76
2022-10-24T20:48:42.156Z,83.10
2022-10-24T20:51:15.390Z,81.97
2022-10-24T20:53:43.160Z,86.28
2022-10-24T20:56:16.544Z,84.62
2022-10-24T20:58:45.000Z,83.96
2022-10-24T21:01:21.193Z,85.66
2022-10-24T21:03:49.843Z,84.05
2022-10-24T21:06:29.735Z,83.87
2022-10-24T21:09:00.485Z,84.34
2022-10-24T21:11:29.831Z,82.05
2022-10-24T21:14:00.496Z,80.95
2022-10-24T21:16:28.774Z,80.60
2022-10-24T21:18:57.862Z,77.44
2022-10-24T21:21:25.843Z,78.96
2022-10-24T21:23:55.455Z,79.30
2022-10-24T21:26:23.291Z,80.14
2022-10-24T21:28:59.405Z,79.43
2022-10-24T21:31:36.696Z,77.87
2022-10-24T21:36:36.603Z,82.39
2022-10-24T21:39:03.962Z,83.94
2022-10-24T21:41:31.283Z,77.80
2022-10-24T21:43:58.967Z,75.00
2022-10-24T21:46:29.151Z,80.00
2022-10-24T21:48:57.265Z,84.23
2022-10-24T21:51:30.321Z,83.99
2022-10-24T21:54:00.233Z,77.60
2022-10-24T21:56:30.248Z,77.95
2022-10-24T21:58:59.904Z,87.13
2022-10-24T22:01:37.411Z,85.74
2022-10-24T22:04:06.544Z,81.73
2022-10-24T22:06:34.945Z,79.75
2022-10-24T22:09:03.462Z,80.22
2022-10-24T22:11:32.311Z,80.80
2022-10-24T22:14:00.143Z,85.04
2022-10-24T22:16:29.574Z,86.17
2022-10-24T22:19:02.604Z,84.75
2022-10-24T22:21:33.926Z,80.36
2022-10-24T22:26:32.763Z,85.10
2022-10-24T22:29:00.385Z,82.92
2022-10-24T22:31:29.239Z,81.39
2022-10-24T22:33:57.515Z,78.34
2022-10-24T22:36:39.781Z,76.51
2022-10-24T22:39:21.906Z,79.43
2022-10-24T22:41:49.799Z,81.75
2022-10-24T22:44:20.637Z,82.62
2022-10-24T22:47:00.207Z,83.83
2022-10-24T22:49:36.711Z,79.54
2022-10-24T22:52:04.374Z,86.27
2022-10-24T22:54:35.602Z,82.81
2022-10-24T22:57:04.468Z,77.76
2022-10-24T22:59:32.891Z,78.66
2022-10-24T23:02:00.358Z,81.08
2022-10-24T23:04:45.942Z,84.04
2022-10-24T23:07:39.686Z,85.08
2022-10-24T23:10:10.633Z,82.89
2022-10-24T23:12:38.612Z,82.62
2022-10-24T23:15:06.712Z,81.13
2022-10-24T23:17:34.412Z,79.52
2022-10-24T23:20:02.392Z,82.49
2022-10-24T23:22:33.279Z,86.64
2022-10-24T23:25:01.428Z,83.31
2022-10-24T23:27:31.772Z,82.66
2022-10-24T23:29:59.375Z,83.65
2022-10-24T23:32:29.653Z,82.36
2022-10-24T23:34:58.327Z,80.76
2022-10-24T23:37:31.922Z,81.94
2022-10-24T23:40:01.976Z,84.78
2022-10-24T23:42:29.634Z,84.92
2022-10-24T23:44:57.193Z,85.39
2022-10-24T23:47:42.968Z,86.56
2022-10-24T23:50:31.529Z,88.53
2022-10-24T23:53:12.533Z,88.32
2022-10-24T23:55:40.112Z,89.70
2022-10-24T23:58:11.055Z,92.03
